sensor_id;sensor_type;location;lat;lon;timestamp;temperature;humidity
14357;DHT22;7262;48.764;9.166;2023-10-31T00:01:26;11.40;99.90
14357;DHT22;7262;48.764;9.166;2023-10-31T00:03:53;11.30;99.90
14357;DHT22;7262;48.764;9.166;2023-10-31T00:06:19;11.40;99.90
14357;DHT22;7262;48.764;9.166;2023-10-31T00:08:49;11.40;99.90
14357;DHT22;7262;48.764;9.166;2023-10-31T00:11:16;11.30;99.90
14357;DHT22;7262;48.764;9.166;2023-10-31T00:13:46;11.40;99.90
14357;DHT22;7262;48.764;9.166;2023-10-31T00:16:13;11.30;99.90
14357;DHT22;7262;48.764;9.166;2023-10-31T00:18:40;11.30;99.90
14357;DHT22;7262;48.764;9.166;2023-10-31T00:21:07;11.40;99.90
14357;DHT22;7262;48.764;9.166;2023-10-31T00:23:34;11.40;99.90
14357;DHT22;7262;48.764;9.166;2023-10-31T00:26:03;11.30;99.90
14357;DHT22;7262;48.764;9.166;2023-10-31T00:28:29;11.30;99.90
14357;DHT22;7262;48.764;9.166;2023-10-31T00:30:57;11.30;99.90
14357;DHT22;7262;48.764;9.166;2023-10-31T00:33:26;11.20;99.90
14357;DHT22;7262;48.764;9.166;2023-10-31T00:35:52;11.30;99.90
14357;DHT22;7262;48.764;9.166;2023-10-31T00:38:20;11.30;99.90
14357;DHT22;7262;48.764;9.166;2023-10-31T00:40:48;11.30;99.90
14357;DHT22;7262;48.764;9.166;2023-10-31T00:43:14;11.40;99.90
14357;DHT22;7262;48.764;9.166;2023-10-31T00:45:42;11.30;99.90
14357;DHT22;7262;48.764;9.166;2023-10-31T00:48:10;11.30;99.90
14357;DHT22;7262;48.764;9.166;2023-10-31T00:50:37;11.20;99.90
14357;DHT22;7262;48.764;9.166;2023-10-31T00:53:03;11.30;99.90
14357;DHT22;7262;48.764;9.166;2023-10-31T00:55:31;11.20;99.90
14357;DHT22;7262;48.764;9.166;2023-10-31T00:57:57;11.20;99.90
14357;DHT22;7262;48.764;9.166;2023-10-31T01:00:24;11.20;99.90
14357;DHT22;7262;48.764;9.166;2023-10-31T01:02:59;11.20;99.90
14357;DHT22;7262;48.764;9.166;2023-10-31T01:05:29;11.20;99.90
14357;DHT22;7262;48.764;9.166;2023-10-31T01:07:57;11.10;99.90
14357;DHT22;7262;48.764;9.166;2023-10-31T01:10:25;11.10;99.90
14357;DHT22;7262;48.764;9.166;2023-10-31T01:12:51;11.00;99.90
14357;DHT22;7262;48.764;9.166;2023-10-31T01:15:18;10.90;99.90
14357;DHT22;7262;48.764;9.166;2023-10-31T01:20:14;10.80;99.90
14357;DHT22;7262;48.764;9.166;2023-10-31T01:22:42;10.70;99.90
14357;DHT22;7262;48.764;9.166;2023-10-31T01:25:09;10.60;99.90
14357;DHT22;7262;48.764;9.166;2023-10-31T01:27:36;10.60;99.90
14357;DHT22;7262;48.764;9.166;2023-10-31T01:30:03;10.50;99.90
14357;DHT22;7262;48.764;9.166;2023-10-31T01:32:30;10.50;99.90
14357;DHT22;7262;48.764;9.166;2023-10-31T01:34:57;10.40;99.90
14357;DHT22;7262;48.764;9.166;2023-10-31T01:37:23;10.30;99.90
14357;DHT22;7262;48.764;9.166;2023-10-31T01:39:51;10.30;99.90
14357;DHT22;7262;48.764;9.166;2023-10-31T01:42:19;10.20;99.90
14357;DHT22;7262;48.764;9.166;2023-10-31T01:44:46;10.20;99.90
14357;DHT22;7262;48.764;9.166;2023-10-31T01:47:13;10.20;99.90
14357;DHT22;7262;48.764;9.166;2023-10-31T01:49:40;10.10;99.90
14357;DHT22;7262;48.764;9.166;2023-10-31T01:52:07;10.10;99.90
14357;DHT22;7262;48.764;9.166;2023-10-31T01:54:34;10.10;99.90
14357;DHT22;7262;48.764;9.166;2023-10-31T01:57:02;10.10;99.90
14357;DHT22;7262;48.764;9.166;2023-10-31T01:59:30;10.10;99.90
14357;DHT22;7262;48.764;9.166;2023-10-31T02:01:57;10.10;99.90
14357;DHT22;7262;48.764;9.166;2023-10-31T02:04:25;10.10;99.90
14357;DHT22;7262;48.764;9.166;2023-10-31T02:06:52;10.10;99.90
14357;DHT22;7262;48.764;9.166;2023-10-31T02:09:19;10.10;99.90
14357;DHT22;7262;48.764;9.166;2023-10-31T02:11:49;10.10;99.90
14357;DHT22;7262;48.764;9.166;2023-10-31T02:14:18;10.10;99.90
14357;DHT22;7262;48.764;9.166;2023-10-31T02:16:45;10.00;99.90
14357;DHT22;7262;48.764;9.166;2023-10-31T02:19:12;10.00;99.90
14357;DHT22;7262;48.764;9.166;2023-10-31T02:21:43;10.00;99.90
14357;DHT22;7262;48.764;9.166;2023-10-31T02:24:11;10.00;99.90
14357;DHT22;7262;48.764;9.166;2023-10-31T02:26:37;10.00;99.90
14357;DHT22;7262;48.764;9.166;2023-10-31T02:29:05;10.00;99.90
14357;DHT22;7262;48.764;9.166;2023-10-31T02:31:34;9.90;99.90
14357;DHT22;7262;48.764;9.166;2023-10-31T02:34:01;9.90;99.90
14357;DHT22;7262;48.764;9.166;2023-10-31T02:36:27;10.00;99.90
14357;DHT22;7262;48.764;9.166;2023-10-31T02:38:55;10.00;99.90
14357;DHT22;7262;48.764;9.166;2023-10-31T02:41:22;10.00;99.90
14357;DHT22;7262;48.764;9.166;2023-10-31T02:43:50;10.00;99.90
14357;DHT22;7262;48.764;9.166;2023-10-31T02:46:16;10.00;99.90
14357;DHT22;7262;48.764;9.166;2023-10-31T02:48:44;9.90;99.90
14357;DHT22;7262;48.764;9.166;2023-10-31T02:51:11;10.00;99.90
14357;DHT22;7262;48.764;9.166;2023-10-31T02:53:38;10.00;99.90
14357;DHT22;7262;48.764;9.166;2023-10-31T02:56:09;10.00;99.90
14357;DHT22;7262;48.764;9.166;2023-10-31T02:58:35;10.10;99.90
14357;DHT22;7262;48.764;9.166;2023-10-31T03:01:02;10.10;99.90
14357;DHT22;7262;48.764;9.166;2023-10-31T03:03:29;10.10;99.90
14357;DHT22;7262;48.764;9.166;2023-10-31T03:05:56;10.10;99.90
14357;DHT22;7262;48.764;9.166;2023-10-31T03:08:23;10.10;99.90
14357;DHT22;7262;48.764;9.166;2023-10-31T03:10:49;10.10;99.90
14357;DHT22;7262;48.764;9.166;2023-10-31T03:13:18;10.10;99.90
14357;DHT22;7262;48.764;9.166;2023-10-31T03:15:45;10.00;99.90
14357;DHT22;7262;48.764;9.166;2023-10-31T03:18:12;10.10;99.90
14357;DHT22;7262;48.764;9.166;2023-10-31T03:20:40;10.00;99.90
14357;DHT22;7262;48.764;9.166;2023-10-31T03:23:07;10.00;99.90
14357;DHT22;7262;48.764;9.166;2023-10-31T03:25:34;10.00;99.90
14357;DHT22;7262;48.764;9.166;2023-10-31T03:28:01;10.10;99.90
14357;DHT22;7262;48.764;9.166;2023-10-31T03:30:29;10.00;99.90
14357;DHT22;7262;48.764;9.166;2023-10-31T03:32:56;10.10;99.90
14357;DHT22;7262;48.764;9.166;2023-10-31T03:35:22;10.10;99.90
14357;DHT22;7262;48.764;9.166;2023-10-31T03:37:49;10.10;99.90
14357;DHT22;7262;48.764;9.166;2023-10-31T03:40:16;10.00;99.90
14357;DHT22;7262;48.764;9.166;2023-10-31T03:42:43;10.00;99.90
14357;DHT22;7262;48.764;9.166;2023-10-31T03:45:10;10.00;99.90
14357;DHT22;7262;48.764;9.166;2023-10-31T03:47:38;10.00;99.90
14357;DHT22;7262;48.764;9.166;2023-10-31T03:50:05;9.90;99.90
14357;DHT22;7262;48.764;9.166;2023-10-31T03:52:32;9.90;99.90
14357;DHT22;7262;48.764;9.166;2023-10-31T03:54:59;9.90;99.90
14357;DHT22;7262;48.764;9.166;2023-10-31T03:57:26;9.90;99.90
14357;DHT22;7262;48.764;9.166;2023-10-31T03:59:53;9.90;99.90
14357;DHT22;7262;48.764;9.166;2023-10-31T04:02:20;9.90;99.90
14357;DHT22;7262;48.764;9.166;2023-10-31T04:04:48;9.90;99.90
14357;DHT22;7262;48.764;9.166;2023-10-31T04:07:15;9.90;99.90
14357;DHT22;7262;48.764;9.166;2023-10-31T04:09:42;9.80;99.90
14357;DHT22;7262;48.764;9.166;2023-10-31T04:12:09;9.80;99.90
14357;DHT22;7262;48.764;9.166;2023-10-31T04:14:37;9.80;99.90
14357;DHT22;7262;48.764;9.166;2023-10-31T04:17:04;9.80;99.90
14357;DHT22;7262;48.764;9.166;2023-10-31T04:19:31;9.80;99.90
14357;DHT22;7262;48.764;9.166;2023-10-31T04:21:59;9.90;99.90
14357;DHT22;7262;48.764;9.166;2023-10-31T04:24:26;9.90;99.90
14357;DHT22;7262;48.764;9.166;2023-10-31T04:26:53;9.90;99.90
14357;DHT22;7262;48.764;9.166;2023-10-31T04:29:20;10.00;99.90
14357;DHT22;7262;48.764;9.166;2023-10-31T04:31:46;10.00;99.90
14357;DHT22;7262;48.764;9.166;2023-10-31T04:34:13;9.90;99.90
14357;DHT22;7262;48.764;9.166;2023-10-31T04:36:40;9.90;99.90
14357;DHT22;7262;48.764;9.166;2023-10-31T04:39:08;10.00;99.90
14357;DHT22;7262;48.764;9.166;2023-10-31T04:41:35;10.00;99.90
14357;DHT22;7262;48.764;9.166;2023-10-31T04:44:04;9.90;99.90
14357;DHT22;7262;48.764;9.166;2023-10-31T04:46:31;9.90;99.90
14357;DHT22;7262;48.764;9.166;2023-10-31T04:48:57;10.00;99.90
14357;DHT22;7262;48.764;9.166;2023-10-31T04:51:24;9.90;99.90
14357;DHT22;7262;48.764;9.166;2023-10-31T04:53:51;10.00;99.90
14357;DHT22;7262;48.764;9.166;2023-10-31T04:56:19;9.90;99.90
14357;DHT22;7262;48.764;9.166;2023-10-31T04:58:46;9.90;99.90
14357;DHT22;7262;48.764;9.166;2023-10-31T05:01:13;9.80;99.90
14357;DHT22;7262;48.764;9.166;2023-10-31T05:03:40;9.80;99.90
14357;DHT22;7262;48.764;9.166;2023-10-31T05:06:07;9.80;99.90
14357;DHT22;7262;48.764;9.166;2023-10-31T05:08:33;9.80;99.90
14357;DHT22;7262;48.764;9.166;2023-10-31T05:11:00;9.80;99.90
14357;DHT22;7262;48.764;9.166;2023-10-31T05:13:31;9.80;99.90
14357;DHT22;7262;48.764;9.166;2023-10-31T05:15:58;9.80;99.90
14357;DHT22;7262;48.764;9.166;2023-10-31T05:18:25;9.80;99.90
14357;DHT22;7262;48.764;9.166;2023-10-31T05:20:52;9.80;99.90
14357;DHT22;7262;48.764;9.166;2023-10-31T05:23:19;9.70;99.90
14357;DHT22;7262;48.764;9.166;2023-10-31T05:25:45;9.70;99.90
14357;DHT22;7262;48.764;9.166;2023-10-31T05:28:12;9.70;99.90
14357;DHT22;7262;48.764;9.166;2023-10-31T05:30:40;9.70;99.90
14357;DHT22;7262;48.764;9.166;2023-10-31T05:33:07;9.60;99.90
14357;DHT22;7262;48.764;9.166;2023-10-31T05:35:33;9.70;99.90
14357;DHT22;7262;48.764;9.166;2023-10-31T05:38:00;9.60;99.90
14357;DHT22;7262;48.764;9.166;2023-10-31T05:40:27;9.60;99.90
14357;DHT22;7262;48.764;9.166;2023-10-31T05:42:54;9.60;99.90
14357;DHT22;7262;48.764;9.166;2023-10-31T05:45:22;9.60;99.90
14357;DHT22;7262;48.764;9.166;2023-10-31T05:47:50;9.50;99.90
14357;DHT22;7262;48.764;9.166;2023-10-31T05:50:17;9.50;99.90
14357;DHT22;7262;48.764;9.166;2023-10-31T05:52:44;9.50;99.90
14357;DHT22;7262;48.764;9.166;2023-10-31T05:55:11;9.50;99.90
14357;DHT22;7262;48.764;9.166;2023-10-31T05:57:39;9.50;99.90
14357;DHT22;7262;48.764;9.166;2023-10-31T06:00:06;9.50;99.90
14357;DHT22;7262;48.764;9.166;2023-10-31T06:02:33;9.50;99.90
14357;DHT22;7262;48.764;9.166;2023-10-31T06:05:02;9.60;99.90
14357;DHT22;7262;48.764;9.166;2023-10-31T06:07:29;9.50;99.90
14357;DHT22;7262;48.764;9.166;2023-10-31T06:09:57;9.50;99.90
14357;DHT22;7262;48.764;9.166;2023-10-31T06:12:23;9.50;99.90
14357;DHT22;7262;48.764;9.166;2023-10-31T06:14:50;9.50;99.90
14357;DHT22;7262;48.764;9.166;2023-10-31T06:17:17;9.70;99.90
14357;DHT22;7262;48.764;9.166;2023-10-31T06:19:44;9.50;99.90
14357;DHT22;7262;48.764;9.166;2023-10-31T06:22:14;9.50;99.90
14357;DHT22;7262;48.764;9.166;2023-10-31T06:24:41;9.50;99.90
14357;DHT22;7262;48.764;9.166;2023-10-31T06:27:08;9.60;99.90
14357;DHT22;7262;48.764;9.166;2023-10-31T06:29:35;9.60;99.90
14357;DHT22;7262;48.764;9.166;2023-10-31T06:32:02;9.60;99.90
14357;DHT22;7262;48.764;9.166;2023-10-31T06:34:29;9.60;99.90
14357;DHT22;7262;48.764;9.166;2023-10-31T06:36:55;9.70;99.90
14357;DHT22;7262;48.764;9.166;2023-10-31T06:39:24;9.70;99.90
14357;DHT22;7262;48.764;9.166;2023-10-31T06:41:54;9.70;99.90
14357;DHT22;7262;48.764;9.166;2023-10-31T06:44:22;9.80;99.90
14357;DHT22;7262;48.764;9.166;2023-10-31T06:46:50;9.80;99.90
14357;DHT22;7262;48.764;9.166;2023-10-31T06:49:17;9.80;99.90
14357;DHT22;7262;48.764;9.166;2023-10-31T06:51:45;9.90;99.90
14357;DHT22;7262;48.764;9.166;2023-10-31T06:54:12;9.90;99.90
14357;DHT22;7262;48.764;9.166;2023-10-31T06:56:40;10.00;99.90
14357;DHT22;7262;48.764;9.166;2023-10-31T06:59:07;10.00;99.90
14357;DHT22;7262;48.764;9.166;2023-10-31T07:01:34;10.10;99.90
14357;DHT22;7262;48.764;9.166;2023-10-31T07:04:01;10.20;99.90
14357;DHT22;7262;48.764;9.166;2023-10-31T07:06:28;10.20;99.90
14357;DHT22;7262;48.764;9.166;2023-10-31T07:08:55;10.20;99.90
14357;DHT22;7262;48.764;9.166;2023-10-31T07:11:23;10.30;99.90
14357;DHT22;7262;48.764;9.166;2023-10-31T07:14:12;10.40;99.90
14357;DHT22;7262;48.764;9.166;2023-10-31T07:16:44;10.50;99.90
14357;DHT22;7262;48.764;9.166;2023-10-31T07:19:11;10.50;99.90
14357;DHT22;7262;48.764;9.166;2023-10-31T07:21:40;10.50;99.90
14357;DHT22;7262;48.764;9.166;2023-10-31T07:24:08;10.60;99.90
14357;DHT22;7262;48.764;9.166;2023-10-31T07:26:35;10.60;99.90
14357;DHT22;7262;48.764;9.166;2023-10-31T07:29:02;10.70;99.90
14357;DHT22;7262;48.764;9.166;2023-10-31T07:31:30;10.80;99.90
14357;DHT22;7262;48.764;9.166;2023-10-31T07:33:57;10.80;99.90
14357;DHT22;7262;48.764;9.166;2023-10-31T07:36:24;10.80;99.90
14357;DHT22;7262;48.764;9.166;2023-10-31T07:38:51;10.90;99.90
14357;DHT22;7262;48.764;9.166;2023-10-31T07:41:18;10.80;99.90
14357;DHT22;7262;48.764;9.166;2023-10-31T07:43:50;10.90;99.90
14357;DHT22;7262;48.764;9.166;2023-10-31T07:46:17;11.00;99.90
14357;DHT22;7262;48.764;9.166;2023-10-31T07:48:52;11.00;99.90
14357;DHT22;7262;48.764;9.166;2023-10-31T07:51:19;11.10;99.90
14357;DHT22;7262;48.764;9.166;2023-10-31T07:53:46;11.20;99.90
14357;DHT22;7262;48.764;9.166;2023-10-31T07:56:16;11.20;99.90
14357;DHT22;7262;48.764;9.166;2023-10-31T07:58:43;11.20;99.90
14357;DHT22;7262;48.764;9.166;2023-10-31T08:01:09;11.30;99.90
14357;DHT22;7262;48.764;9.166;2023-10-31T08:03:37;11.40;99.90
14357;DHT22;7262;48.764;9.166;2023-10-31T08:06:06;11.50;99.90
14357;DHT22;7262;48.764;9.166;2023-10-31T08:08:34;11.60;99.90
14357;DHT22;7262;48.764;9.166;2023-10-31T08:11:01;11.60;99.90
14357;DHT22;7262;48.764;9.166;2023-10-31T08:13:29;11.60;99.90
14357;DHT22;7262;48.764;9.166;2023-10-31T08:15:56;11.90;99.90
14357;DHT22;7262;48.764;9.166;2023-10-31T08:18:23;12.00;99.90
14357;DHT22;7262;48.764;9.166;2023-10-31T08:20:50;12.10;99.90
14357;DHT22;7262;48.764;9.166;2023-10-31T08:23:17;12.20;99.90
14357;DHT22;7262;48.764;9.166;2023-10-31T08:25:44;12.10;99.90
14357;DHT22;7262;48.764;9.166;2023-10-31T08:28:12;12.20;99.90
14357;DHT22;7262;48.764;9.166;2023-10-31T08:30:39;12.30;99.90
14357;DHT22;7262;48.764;9.166;2023-10-31T08:33:06;12.30;99.90
14357;DHT22;7262;48.764;9.166;2023-10-31T08:35:33;12.50;99.90
14357;DHT22;7262;48.764;9.166;2023-10-31T08:38:00;12.70;99.90
14357;DHT22;7262;48.764;9.166;2023-10-31T08:40:28;12.80;99.90
14357;DHT22;7262;48.764;9.166;2023-10-31T08:42:55;13.10;99.90
14357;DHT22;7262;48.764;9.166;2023-10-31T08:45:22;12.90;99.90
14357;DHT22;7262;48.764;9.166;2023-10-31T08:47:50;12.70;99.90
14357;DHT22;7262;48.764;9.166;2023-10-31T08:50:18;12.90;99.90
14357;DHT22;7262;48.764;9.166;2023-10-31T08:52:45;12.60;99.90
14357;DHT22;7262;48.764;9.166;2023-10-31T08:55:12;12.60;99.90
14357;DHT22;7262;48.764;9.166;2023-10-31T08:57:40;12.60;99.90
14357;DHT22;7262;48.764;9.166;2023-10-31T09:00:08;12.60;99.90
14357;DHT22;7262;48.764;9.166;2023-10-31T09:02:35;12.60;99.90
14357;DHT22;7262;48.764;9.166;2023-10-31T09:05:04;12.70;99.90
14357;DHT22;7262;48.764;9.166;2023-10-31T09:07:32;12.80;99.90
14357;DHT22;7262;48.764;9.166;2023-10-31T09:09:59;13.00;99.90
14357;DHT22;7262;48.764;9.166;2023-10-31T09:12:26;13.20;99.90
14357;DHT22;7262;48.764;9.166;2023-10-31T09:14:54;13.30;99.90
14357;DHT22;7262;48.764;9.166;2023-10-31T09:17:21;13.50;99.90
14357;DHT22;7262;48.764;9.166;2023-10-31T09:48:27;13.90;99.90
14357;DHT22;7262;48.764;9.166;2023-10-31T09:50:54;14.00;99.90
14357;DHT22;7262;48.764;9.166;2023-10-31T10:08:56;14.20;99.90
14357;DHT22;7262;48.764;9.166;2023-10-31T10:11:25;13.90;99.90
14357;DHT22;7262;48.764;9.166;2023-10-31T10:13:52;13.80;99.90
14357;DHT22;7262;48.764;9.166;2023-10-31T10:16:28;13.50;99.90
14357;DHT22;7262;48.764;9.166;2023-10-31T10:18:55;13.50;99.90
14357;DHT22;7262;48.764;9.166;2023-10-31T10:21:22;13.50;99.90
14357;DHT22;7262;48.764;9.166;2023-10-31T10:23:51;13.50;99.90
14357;DHT22;7262;48.764;9.166;2023-10-31T10:26:19;13.40;99.90
14357;DHT22;7262;48.764;9.166;2023-10-31T10:28:51;13.40;99.90
14357;DHT22;7262;48.764;9.166;2023-10-31T10:31:20;13.50;99.90
14357;DHT22;7262;48.764;9.166;2023-10-31T10:33:53;13.70;99.90
14357;DHT22;7262;48.764;9.166;2023-10-31T10:36:22;13.90;99.90
14357;DHT22;7262;48.764;9.166;2023-10-31T10:38:49;14.10;99.90
14357;DHT22;7262;48.764;9.166;2023-10-31T10:41:19;14.10;99.90
14357;DHT22;7262;48.764;9.166;2023-10-31T10:43:48;14.10;99.90
14357;DHT22;7262;48.764;9.166;2023-10-31T10:46:17;13.70;99.90
14357;DHT22;7262;48.764;9.166;2023-10-31T10:48:47;13.60;99.90
14357;DHT22;7262;48.764;9.166;2023-10-31T10:51:18;13.70;99.90
14357;DHT22;7262;48.764;9.166;2023-10-31T10:53:48;13.60;99.90
14357;DHT22;7262;48.764;9.166;2023-10-31T10:56:19;13.50;99.90
14357;DHT22;7262;48.764;9.166;2023-10-31T10:58:52;13.50;99.90
14357;DHT22;7262;48.764;9.166;2023-10-31T11:01:22;13.50;99.90
14357;DHT22;7262;48.764;9.166;2023-10-31T11:03:50;13.60;99.90
14357;DHT22;7262;48.764;9.166;2023-10-31T11:06:18;13.60;99.90
14357;DHT22;7262;48.764;9.166;2023-10-31T11:08:45;13.60;99.90
14357;DHT22;7262;48.764;9.166;2023-10-31T11:11:12;13.80;99.90
14357;DHT22;7262;48.764;9.166;2023-10-31T11:13:41;14.00;99.90
14357;DHT22;7262;48.764;9.166;2023-10-31T11:16:15;14.20;99.90
14357;DHT22;7262;48.764;9.166;2023-10-31T11:18:43;14.50;99.90
14357;DHT22;7262;48.764;9.166;2023-10-31T11:21:11;14.50;99.90
14357;DHT22;7262;48.764;9.166;2023-10-31T11:23:40;14.60;99.90
14357;DHT22;7262;48.764;9.166;2023-10-31T11:36:48;14.70;99.90
14357;DHT22;7262;48.764;9.166;2023-10-31T11:39:18;14.60;99.90
14357;DHT22;7262;48.764;9.166;2023-10-31T11:41:48;14.80;99.90
14357;DHT22;7262;48.764;9.166;2023-10-31T11:44:16;15.00;99.90
14357;DHT22;7262;48.764;9.166;2023-10-31T11:46:43;14.80;99.90
14357;DHT22;7262;48.764;9.166;2023-10-31T11:49:13;14.90;99.90
14357;DHT22;7262;48.764;9.166;2023-10-31T11:51:39;14.90;99.90
14357;DHT22;7262;48.764;9.166;2023-10-31T11:54:12;14.90;99.90
14357;DHT22;7262;48.764;9.166;2023-10-31T11:56:39;14.80;99.90
14357;DHT22;7262;48.764;9.166;2023-10-31T11:59:06;14.70;99.90
14357;DHT22;7262;48.764;9.166;2023-10-31T12:01:33;14.50;99.90
14357;DHT22;7262;48.764;9.166;2023-10-31T12:04:00;14.30;99.90
14357;DHT22;7262;48.764;9.166;2023-10-31T12:06:29;14.20;99.90
14357;DHT22;7262;48.764;9.166;2023-10-31T12:08:59;14.00;99.90
14357;DHT22;7262;48.764;9.166;2023-10-31T12:11:27;13.80;99.90
14357;DHT22;7262;48.764;9.166;2023-10-31T12:13:57;13.80;99.90
14357;DHT22;7262;48.764;9.166;2023-10-31T12:16:26;13.70;99.90
14357;DHT22;7262;48.764;9.166;2023-10-31T12:18:57;13.80;99.90
14357;DHT22;7262;48.764;9.166;2023-10-31T12:21:37;13.60;99.90
14357;DHT22;7262;48.764;9.166;2023-10-31T12:24:05;13.50;99.90
14357;DHT22;7262;48.764;9.166;2023-10-31T12:26:34;13.50;99.90
14357;DHT22;7262;48.764;9.166;2023-10-31T12:29:07;13.30;99.90
14357;DHT22;7262;48.764;9.166;2023-10-31T12:31:35;13.20;99.90
14357;DHT22;7262;48.764;9.166;2023-10-31T12:34:04;13.00;99.90
14357;DHT22;7262;48.764;9.166;2023-10-31T12:36:31;12.90;99.90
14357;DHT22;7262;48.764;9.166;2023-10-31T12:38:57;12.60;99.90
14357;DHT22;7262;48.764;9.166;2023-10-31T12:41:25;12.60;99.90
14357;DHT22;7262;48.764;9.166;2023-10-31T12:43:56;12.50;99.90
14357;DHT22;7262;48.764;9.166;2023-10-31T12:46:26;12.50;99.90
14357;DHT22;7262;48.764;9.166;2023-10-31T13:46:56;13.20;99.90
14357;DHT22;7262;48.764;9.166;2023-10-31T13:57:09;13.40;99.90
14357;DHT22;7262;48.764;9.166;2023-10-31T13:59:36;13.60;99.90
14357;DHT22;7262;48.764;9.166;2023-10-31T14:02:04;13.70;99.90
14357;DHT22;7262;48.764;9.166;2023-10-31T14:04:32;13.80;99.90
14357;DHT22;7262;48.764;9.166;2023-10-31T14:06:59;13.80;99.90
14357;DHT22;7262;48.764;9.166;2023-10-31T14:09:26;14.00;99.90
14357;DHT22;7262;48.764;9.166;2023-10-31T14:11:53;13.90;99.90
14357;DHT22;7262;48.764;9.166;2023-10-31T14:14:19;13.80;99.90
14357;DHT22;7262;48.764;9.166;2023-10-31T14:16:47;13.80;99.90
14357;DHT22;7262;48.764;9.166;2023-10-31T14:19:17;13.80;99.90
14357;DHT22;7262;48.764;9.166;2023-10-31T14:21:47;13.80;99.90
14357;DHT22;7262;48.764;9.166;2023-10-31T14:24:14;13.80;99.90
14357;DHT22;7262;48.764;9.166;2023-10-31T14:26:44;13.90;99.90
14357;DHT22;7262;48.764;9.166;2023-10-31T14:29:13;13.70;99.90
14357;DHT22;7262;48.764;9.166;2023-10-31T14:31:40;13.80;99.90
14357;DHT22;7262;48.764;9.166;2023-10-31T14:34:07;13.80;99.90
14357;DHT22;7262;48.764;9.166;2023-10-31T14:36:37;13.70;99.90
14357;DHT22;7262;48.764;9.166;2023-10-31T14:39:03;13.70;99.90
14357;DHT22;7262;48.764;9.166;2023-10-31T14:41:31;13.70;99.90
14357;DHT22;7262;48.764;9.166;2023-10-31T14:43:59;13.80;99.90
14357;DHT22;7262;48.764;9.166;2023-10-31T14:46:26;13.70;99.90
14357;DHT22;7262;48.764;9.166;2023-10-31T14:48:55;13.70;99.90
14357;DHT22;7262;48.764;9.166;2023-10-31T14:51:22;13.60;99.90
14357;DHT22;7262;48.764;9.166;2023-10-31T14:53:51;13.70;99.90
14357;DHT22;7262;48.764;9.166;2023-10-31T14:56:18;13.60;99.90
14357;DHT22;7262;48.764;9.166;2023-10-31T14:58:45;13.60;99.90
14357;DHT22;7262;48.764;9.166;2023-10-31T15:01:12;13.60;99.90
14357;DHT22;7262;48.764;9.166;2023-10-31T15:03:41;13.50;99.90
14357;DHT22;7262;48.764;9.166;2023-10-31T15:06:08;13.30;99.90
14357;DHT22;7262;48.764;9.166;2023-10-31T15:08:36;13.40;99.90
14357;DHT22;7262;48.764;9.166;2023-10-31T15:11:04;13.30;99.90
14357;DHT22;7262;48.764;9.166;2023-10-31T15:13:31;13.40;99.90
14357;DHT22;7262;48.764;9.166;2023-10-31T15:15:58;13.40;99.90
14357;DHT22;7262;48.764;9.166;2023-10-31T15:18:24;13.30;99.90
14357;DHT22;7262;48.764;9.166;2023-10-31T15:20:52;13.10;99.90
14357;DHT22;7262;48.764;9.166;2023-10-31T15:23:20;13.30;99.90
14357;DHT22;7262;48.764;9.166;2023-10-31T15:25:47;13.10;99.90
14357;DHT22;7262;48.764;9.166;2023-10-31T15:28:15;13.00;99.90
14357;DHT22;7262;48.764;9.166;2023-10-31T15:30:42;13.00;99.90
14357;DHT22;7262;48.764;9.166;2023-10-31T15:33:09;12.90;99.90
14357;DHT22;7262;48.764;9.166;2023-10-31T15:35:36;12.90;99.90
14357;DHT22;7262;48.764;9.166;2023-10-31T15:38:04;12.90;99.90
14357;DHT22;7262;48.764;9.166;2023-10-31T15:40:34;12.80;99.90
14357;DHT22;7262;48.764;9.166;2023-10-31T15:43:01;12.80;99.90
14357;DHT22;7262;48.764;9.166;2023-10-31T15:45:29;12.70;99.90
14357;DHT22;7262;48.764;9.166;2023-10-31T15:48:05;12.60;99.90
14357;DHT22;7262;48.764;9.166;2023-10-31T15:50:32;12.50;99.90
14357;DHT22;7262;48.764;9.166;2023-10-31T15:52:59;12.50;99.90
14357;DHT22;7262;48.764;9.166;2023-10-31T15:55:26;12.50;99.90
14357;DHT22;7262;48.764;9.166;2023-10-31T15:57:53;12.50;99.90
14357;DHT22;7262;48.764;9.166;2023-10-31T16:00:20;12.40;99.90
14357;DHT22;7262;48.764;9.166;2023-10-31T16:02:48;12.50;99.90
14357;DHT22;7262;48.764;9.166;2023-10-31T16:05:16;12.50;99.90
14357;DHT22;7262;48.764;9.166;2023-10-31T16:07:43;12.40;99.90
14357;DHT22;7262;48.764;9.166;2023-10-31T16:10:10;12.60;99.90
14357;DHT22;7262;48.764;9.166;2023-10-31T16:12:38;12.40;99.90
14357;DHT22;7262;48.764;9.166;2023-10-31T16:15:08;12.50;99.90
14357;DHT22;7262;48.764;9.166;2023-10-31T16:17:35;12.40;99.90
14357;DHT22;7262;48.764;9.166;2023-10-31T16:20:06;12.40;99.90
14357;DHT22;7262;48.764;9.166;2023-10-31T16:22:33;12.30;99.90
14357;DHT22;7262;48.764;9.166;2023-10-31T16:25:02;12.30;99.90
14357;DHT22;7262;48.764;9.166;2023-10-31T16:27:29;12.20;99.90
14357;DHT22;7262;48.764;9.166;2023-10-31T16:37:46;12.00;99.90
14357;DHT22;7262;48.764;9.166;2023-10-31T16:40:13;12.10;99.90
14357;DHT22;7262;48.764;9.166;2023-10-31T16:42:40;12.00;99.90
14357;DHT22;7262;48.764;9.166;2023-10-31T16:45:07;12.00;99.90
14357;DHT22;7262;48.764;9.166;2023-10-31T16:47:36;11.90;99.90
14357;DHT22;7262;48.764;9.166;2023-10-31T16:50:03;11.90;99.90
14357;DHT22;7262;48.764;9.166;2023-10-31T16:52:30;11.90;99.90
14357;DHT22;7262;48.764;9.166;2023-10-31T16:54:58;11.90;99.90
14357;DHT22;7262;48.764;9.166;2023-10-31T16:57:25;11.80;99.90
14357;DHT22;7262;48.764;9.166;2023-10-31T16:59:53;11.70;99.90
14357;DHT22;7262;48.764;9.166;2023-10-31T17:02:19;11.80;99.90
14357;DHT22;7262;48.764;9.166;2023-10-31T17:04:46;11.70;99.90
14357;DHT22;7262;48.764;9.166;2023-10-31T17:07:13;11.60;99.90
14357;DHT22;7262;48.764;9.166;2023-10-31T17:09:41;11.60;99.90
14357;DHT22;7262;48.764;9.166;2023-10-31T17:12:26;11.60;99.90
14357;DHT22;7262;48.764;9.166;2023-10-31T17:14:53;11.40;99.90
14357;DHT22;7262;48.764;9.166;2023-10-31T17:17:20;11.50;99.90
14357;DHT22;7262;48.764;9.166;2023-10-31T17:19:47;11.40;99.90
14357;DHT22;7262;48.764;9.166;2023-10-31T17:22:14;11.50;99.90
14357;DHT22;7262;48.764;9.166;2023-10-31T17:24:41;11.50;99.90
14357;DHT22;7262;48.764;9.166;2023-10-31T17:27:08;11.30;99.90
14357;DHT22;7262;48.764;9.166;2023-10-31T17:29:36;11.40;99.90
14357;DHT22;7262;48.764;9.166;2023-10-31T17:32:06;11.50;99.90
14357;DHT22;7262;48.764;9.166;2023-10-31T17:34:33;11.30;99.90
14357;DHT22;7262;48.764;9.166;2023-10-31T17:37:01;11.20;99.90
14357;DHT22;7262;48.764;9.166;2023-10-31T17:39:31;11.30;99.90
14357;DHT22;7262;48.764;9.166;2023-10-31T17:42:13;11.20;99.90
14357;DHT22;7262;48.764;9.166;2023-10-31T17:44:42;11.00;99.90
14357;DHT22;7262;48.764;9.166;2023-10-31T17:47:10;11.10;99.90
14357;DHT22;7262;48.764;9.166;2023-10-31T17:49:37;11.00;99.90
14357;DHT22;7262;48.764;9.166;2023-10-31T17:52:04;11.00;99.90
14357;DHT22;7262;48.764;9.166;2023-10-31T17:54:32;11.00;99.90
14357;DHT22;7262;48.764;9.166;2023-10-31T17:57:00;10.80;99.90
14357;DHT22;7262;48.764;9.166;2023-10-31T17:59:27;10.80;99.90
14357;DHT22;7262;48.764;9.166;2023-10-31T18:01:56;10.80;99.90
14357;DHT22;7262;48.764;9.166;2023-10-31T18:04:23;10.80;99.90